createdAt,value
2022-11-26T00:02:30.034Z,6.60
2022-11-26T00:05:01.316Z,6.60
2022-11-26T00:07:36.325Z,6.60
2022-11-26T00:10:09.953Z,6.70
2022-11-26T00:12:38.843Z,6.70
2022-11-26T00:15:16.663Z,6.70
2022-11-26T00:17:45.310Z,6.70
2022-11-26T00:20:14.673Z,6.60
2022-11-26T00:22:48.514Z,6.60
2022-11-26T00:25:23.936Z,6.60
2022-11-26T00:27:55.698Z,6.60
2022-11-26T00:30:26.575Z,6.60
2022-11-26T00:32:56.764Z,6.60
2022-11-26T00:35:25.584Z,6.60
2022-11-26T00:37:58.055Z,6.50
2022-11-26T00:40:35.166Z,6.50
2022-11-26T00:43:04.121Z,6.40
2022-11-26T00:45:33.369Z,6.40
2022-11-26T00:48:02.917Z,6.40
2022-11-26T00:50:35.506Z,6.40
2022-11-26T00:53:04.477Z,6.40
2022-11-26T00:55:37.303Z,6.30
2022-11-26T00:58:07.637Z,6.30
2022-11-26T01:00:36.925Z,6.30
2022-11-26T01:03:05.637Z,6.30
2022-11-26T01:05:34.674Z,6.20
2022-11-26T01:08:16.607Z,6.20
2022-11-26T01:10:46.693Z,6.20
2022-11-26T01:13:22.937Z,6.10
2022-11-26T01:15:51.891Z,6.10
2022-11-26T01:18:22.439Z,6.10
2022-11-26T01:20:52.049Z,6.10
2022-11-26T01:23:21.525Z,6.10
2022-11-26T01:25:51.626Z,6.10
2022-11-26T01:28:20.885Z,6.10
2022-11-26T01:30:49.539Z,6.10
2022-11-26T01:33:18.150Z,6.10
2022-11-26T01:35:47.149Z,6.10
2022-11-26T01:38:16.793Z,6.10
2022-11-26T01:41:00.924Z,6.10
2022-11-26T01:43:33.445Z,6.20
2022-11-26T01:46:02.049Z,6.20
2022-11-26T01:48:34.199Z,6.30
2022-11-26T01:51:07.514Z,6.30
2022-11-26T01:53:44.814Z,6.40
2022-11-26T01:56:22.351Z,6.40
2022-11-26T01:58:55.579Z,6.40
2022-11-26T02:01:24.430Z,6.40
2022-11-26T02:04:01.541Z,6.40
2022-11-26T02:06:33.666Z,6.40
2022-11-26T02:09:05.121Z,6.40
2022-11-26T02:11:35.256Z,6.40
2022-11-26T02:14:07.496Z,6.40
2022-11-26T02:17:00.897Z,6.30
2022-11-26T02:19:58.630Z,6.30
2022-11-26T02:22:48.499Z,6.20
2022-11-26T02:25:21.745Z,6.20
2022-11-26T02:28:16.804Z,6.10
2022-11-26T02:30:50.752Z,6.10
2022-11-26T02:33:25.837Z,6.00
2022-11-26T02:35:59.894Z,6.00
2022-11-26T02:38:30.638Z,5.90
2022-11-26T02:40:59.137Z,5.90
2022-11-26T02:43:28.950Z,5.80
2022-11-26T02:46:03.289Z,5.70
2022-11-26T02:48:35.736Z,5.70
2022-11-26T02:51:07.418Z,5.70
2022-11-26T02:53:38.411Z,5.60
2022-11-26T02:56:10.175Z,5.60
2022-11-26T02:58:39.163Z,5.50
2022-11-26T03:01:13.985Z,5.50
2022-11-26T03:03:47.919Z,5.40
2022-11-26T03:06:17.817Z,5.40
2022-11-26T03:08:47.095Z,5.40
2022-11-26T03:11:15.647Z,5.40
2022-11-26T03:13:44.418Z,5.30
2022-11-26T03:16:14.386Z,5.30
2022-11-26T03:18:43.341Z,5.30
2022-11-26T03:21:12.040Z,5.30
2022-11-26T03:23:40.686Z,5.30
2022-11-26T03:26:09.514Z,5.20
2022-11-26T03:28:38.509Z,5.20
2022-11-26T03:31:07.346Z,5.10
2022-11-26T03:33:37.529Z,5.10
2022-11-26T03:36:06.665Z,5.10
2022-11-26T03:38:35.256Z,5.00
2022-11-26T03:41:06.943Z,5.00
2022-11-26T03:43:35.508Z,5.00
2022-11-26T03:46:04.158Z,4.90
2022-11-26T03:48:32.817Z,5.00
2022-11-26T03:51:02.793Z,4.90
2022-11-26T03:53:31.383Z,4.90
2022-11-26T03:56:00.048Z,4.90
2022-11-26T03:58:28.961Z,4.90
2022-11-26T04:00:57.435Z,4.80
2022-11-26T04:03:26.072Z,4.80
2022-11-26T04:05:54.617Z,4.70
2022-11-26T04:08:24.516Z,4.70
2022-11-26T04:10:52.996Z,4.70
2022-11-26T04:13:23.684Z,4.70
2022-11-26T04:15:52.495Z,4.60
2022-11-26T04:18:21.081Z,4.50
2022-11-26T04:20:53.011Z,4.50
2022-11-26T04:23:23.920Z,4.50
2022-11-26T04:25:52.450Z,4.50
2022-11-26T04:28:20.974Z,4.40
2022-11-26T04:30:49.501Z,4.40
2022-11-26T04:33:18.110Z,4.40
2022-11-26T04:35:46.953Z,4.30
2022-11-26T04:38:15.504Z,4.30
2022-11-26T04:40:45.417Z,4.30
2022-11-26T04:43:13.934Z,4.30
2022-11-26T04:45:42.795Z,4.20
2022-11-26T04:48:11.411Z,4.20
2022-11-26T04:50:40.019Z,4.10
2022-11-26T04:53:08.792Z,4.20
2022-11-26T04:55:37.685Z,4.20
2022-11-26T04:58:07.546Z,4.10
2022-11-26T05:00:36.039Z,4.20
2022-11-26T05:03:04.563Z,4.20
2022-11-26T05:05:33.109Z,4.20
2022-11-26T05:08:01.662Z,4.30
2022-11-26T05:10:30.519Z,4.20
2022-11-26T05:12:59.023Z,4.20
2022-11-26T05:15:28.979Z,4.20
2022-11-26T05:17:57.473Z,4.30
2022-11-26T05:20:26.246Z,4.30
2022-11-26T05:22:54.802Z,4.30
2022-11-26T05:25:23.330Z,4.20
2022-11-26T05:27:51.863Z,4.20
2022-11-26T05:30:20.938Z,4.20
2022-11-26T05:32:50.917Z,4.20
2022-11-26T05:35:19.498Z,4.20
2022-11-26T05:37:47.986Z,4.20
2022-11-26T05:40:16.928Z,4.20
2022-11-26T05:42:45.423Z,4.20
2022-11-26T05:45:14.093Z,4.20
2022-11-26T05:47:42.583Z,4.10
2022-11-26T05:50:13.359Z,4.10
2022-11-26T05:52:41.980Z,4.00
2022-11-26T05:55:11.591Z,3.90
2022-11-26T05:57:40.056Z,3.90
2022-11-26T06:00:10.661Z,3.80
2022-11-26T06:02:39.540Z,3.80
2022-11-26T06:05:09.504Z,3.70
2022-11-26T06:07:44.541Z,3.70
2022-11-26T06:10:14.109Z,3.70
2022-11-26T06:12:42.732Z,3.60
2022-11-26T06:15:12.105Z,3.60
2022-11-26T06:17:40.704Z,3.70
2022-11-26T06:20:10.146Z,3.70
2022-11-26T06:22:41.128Z,3.60
2022-11-26T06:25:12.246Z,3.60
2022-11-26T06:27:41.678Z,3.60
2022-11-26T06:30:12.420Z,3.50
2022-11-26T06:32:40.880Z,3.50
2022-11-26T06:35:10.467Z,3.50
2022-11-26T06:37:40.448Z,3.50
2022-11-26T06:40:12.208Z,3.50
2022-11-26T06:42:40.695Z,3.50
2022-11-26T06:45:10.543Z,3.50
2022-11-26T06:47:38.981Z,3.50
2022-11-26T06:50:10.828Z,3.50
2022-11-26T06:52:41.101Z,3.50
2022-11-26T06:55:10.653Z,3.50
2022-11-26T06:57:39.261Z,3.50
2022-11-26T07:00:09.232Z,3.50
2022-11-26T07:02:39.372Z,3.50
2022-11-26T07:05:08.598Z,3.50
2022-11-26T07:07:39.014Z,3.50
2022-11-26T07:10:09.986Z,3.60
2022-11-26T07:12:38.537Z,3.60
2022-11-26T07:15:07.948Z,3.60
2022-11-26T07:17:36.425Z,3.70
2022-11-26T07:20:05.622Z,3.70
2022-11-26T07:22:35.460Z,3.80
2022-11-26T07:25:06.980Z,3.90
2022-11-26T07:27:39.770Z,3.90
2022-11-26T07:30:09.551Z,3.90
2022-11-26T07:32:38.044Z,4.00
2022-11-26T07:35:07.748Z,4.00
2022-11-26T07:37:36.380Z,4.00
2022-11-26T07:40:06.128Z,4.00
2022-11-26T07:42:35.227Z,4.00
2022-11-26T07:45:05.854Z,3.90
2022-11-26T07:47:34.493Z,3.90
2022-11-26T07:50:03.018Z,3.90
2022-11-26T07:52:31.552Z,3.90
2022-11-26T07:55:00.025Z,3.90
2022-11-26T07:57:28.685Z,3.90
2022-11-26T07:59:57.600Z,3.90
2022-11-26T08:02:27.702Z,4.00
2022-11-26T08:04:56.407Z,4.10
2022-11-26T08:07:29.219Z,4.10
2022-11-26T08:09:58.777Z,4.20
2022-11-26T08:12:27.734Z,4.30
2022-11-26T08:14:56.643Z,4.40
2022-11-26T08:17:26.772Z,4.40
2022-11-26T08:19:55.302Z,4.60
2022-11-26T08:22:23.831Z,4.60
2022-11-26T08:24:52.470Z,4.80
2022-11-26T08:27:21.108Z,4.80
2022-11-26T08:29:49.929Z,4.90
2022-11-26T08:32:18.520Z,5.00
2022-11-26T08:34:48.517Z,5.10
2022-11-26T08:37:17.056Z,5.20
2022-11-26T08:39:45.768Z,5.30
2022-11-26T08:42:14.456Z,5.40
2022-11-26T08:44:43.317Z,5.40
2022-11-26T08:47:12.125Z,5.50
2022-11-26T08:49:40.875Z,5.50
2022-11-26T08:52:11.237Z,5.60
2022-11-26T08:54:44.739Z,5.70
2022-11-26T08:57:14.077Z,5.80
2022-11-26T08:59:43.195Z,5.80
2022-11-26T09:02:17.368Z,5.90
2022-11-26T09:04:47.287Z,5.90
2022-11-26T09:07:17.439Z,6.00
2022-11-26T09:09:46.556Z,6.10
2022-11-26T09:12:15.189Z,6.10
2022-11-26T09:14:43.968Z,6.20
2022-11-26T09:17:13.366Z,6.20
2022-11-26T09:19:42.431Z,6.30
2022-11-26T09:22:11.028Z,6.40
2022-11-26T09:24:41.510Z,6.50
2022-11-26T09:27:11.951Z,6.60
2022-11-26T09:29:40.968Z,6.60
2022-11-26T09:32:24.355Z,6.70
2022-11-26T09:34:54.869Z,6.70
2022-11-26T09:37:23.533Z,6.70
2022-11-26T09:39:57.841Z,6.80
2022-11-26T09:42:39.121Z,6.90
2022-11-26T09:45:19.805Z,6.90
2022-11-26T09:47:54.827Z,7.00
2022-11-26T09:50:31.836Z,7.10
2022-11-26T09:53:03.664Z,7.20
2022-11-26T09:55:35.652Z,7.20
2022-11-26T09:58:12.753Z,7.30
2022-11-26T10:00:44.111Z,7.40
2022-11-26T10:03:16.031Z,7.50
2022-11-26T10:05:51.016Z,7.50
2022-11-26T10:08:47.665Z,7.60
2022-11-26T10:11:25.493Z,7.70
2022-11-26T10:14:08.474Z,7.80
2022-11-26T10:16:45.684Z,7.80
2022-11-26T10:19:23.973Z,7.90
2022-11-26T10:21:59.824Z,8.00
2022-11-26T10:24:33.450Z,8.00
2022-11-26T10:27:12.465Z,8.10
2022-11-26T10:29:43.389Z,8.20
2022-11-26T10:32:17.621Z,8.20
2022-11-26T10:34:51.467Z,8.20
2022-11-26T10:37:21.941Z,8.30
2022-11-26T10:39:59.955Z,8.30
2022-11-26T10:42:42.944Z,8.40
2022-11-26T10:45:21.030Z,8.40
2022-11-26T10:47:49.970Z,8.40
2022-11-26T10:53:22.222Z,8.60
2022-11-26T10:55:52.796Z,8.60
2022-11-26T10:58:25.716Z,8.60
2022-11-26T11:01:01.290Z,8.70
2022-11-26T11:04:06.110Z,8.80
2022-11-26T11:06:38.557Z,8.90
2022-11-26T11:09:26.177Z,8.90
2022-11-26T11:12:20.438Z,8.90
2022-11-26T11:14:51.911Z,9.00
2022-11-26T11:17:33.959Z,9.10
2022-11-26T11:20:13.176Z,9.10
2022-11-26T11:22:41.959Z,9.20
2022-11-26T11:25:23.729Z,9.20
2022-11-26T11:27:52.759Z,9.20
2022-11-26T11:30:31.915Z,9.30
2022-11-26T11:33:13.924Z,9.40
2022-11-26T11:35:42.944Z,9.50
2022-11-26T11:38:24.077Z,9.50
2022-11-26T11:40:53.132Z,9.60
2022-11-26T11:43:23.864Z,9.60
2022-11-26T11:46:09.020Z,9.70
2022-11-26T11:48:50.026Z,9.70
2022-11-26T11:51:29.718Z,9.80
2022-11-26T11:54:12.170Z,9.80
2022-11-26T11:56:45.549Z,9.90
2022-11-26T11:59:47.771Z,9.90
2022-11-26T12:02:44.482Z,9.90
2022-11-26T12:05:48.495Z,9.90
2022-11-26T12:08:33.248Z,10.00
2022-11-26T12:11:16.715Z,10.00
2022-11-26T12:13:53.532Z,10.10
2022-11-26T12:16:26.222Z,10.10
2022-11-26T12:19:02.197Z,10.10
2022-11-26T12:21:36.516Z,10.20
2022-11-26T12:24:10.609Z,10.20
2022-11-26T12:26:42.216Z,10.20
2022-11-26T12:29:15.841Z,10.20
2022-11-26T12:31:48.203Z,10.20
2022-11-26T12:34:25.209Z,10.20
2022-11-26T12:36:57.781Z,10.20
2022-11-26T12:39:53.192Z,10.20
2022-11-26T12:42:29.777Z,10.20
2022-11-26T12:45:18.027Z,10.20
2022-11-26T12:47:53.416Z,10.20
2022-11-26T12:50:33.692Z,10.20
2022-11-26T12:53:15.806Z,10.20
2022-11-26T12:55:53.495Z,10.20
2022-11-26T12:58:28.369Z,10.20
2022-11-26T13:00:57.155Z,10.20
2022-11-26T13:03:29.940Z,10.20
2022-11-26T13:06:04.995Z,10.20
2022-11-26T13:08:45.109Z,10.10
2022-11-26T13:11:27.891Z,10.20
2022-11-26T13:14:04.235Z,10.20
2022-11-26T13:16:39.624Z,10.20
2022-11-26T13:19:15.684Z,10.20
2022-11-26T13:22:08.495Z,10.20
2022-11-26T13:24:50.358Z,10.20
2022-11-26T13:27:41.692Z,10.20
2022-11-26T13:30:21.366Z,10.20
2022-11-26T13:33:24.266Z,10.20
2022-11-26T13:36:21.010Z,10.10
2022-11-26T13:39:10.682Z,10.20
2022-11-26T13:42:10.672Z,10.10
2022-11-26T13:45:06.227Z,10.10
2022-11-26T13:47:38.708Z,10.10
2022-11-26T13:50:13.275Z,10.10
2022-11-26T13:52:48.167Z,10.10
2022-11-26T13:55:23.469Z,10.10
2022-11-26T13:57:55.342Z,10.10
2022-11-26T14:00:27.589Z,10.10
2022-11-26T14:02:56.966Z,10.10
2022-11-26T14:05:46.183Z,10.10
2022-11-26T14:08:38.491Z,10.10
2022-11-26T14:11:09.679Z,10.10
2022-11-26T14:13:40.067Z,10.10
2022-11-26T14:16:09.783Z,10.10
2022-11-26T14:19:08.789Z,10.10
2022-11-26T14:22:03.915Z,10.10
2022-11-26T14:25:04.222Z,10.10
2022-11-26T14:27:36.538Z,10.10
2022-11-26T14:30:24.166Z,10.10
2022-11-26T14:33:07.203Z,10.10
2022-11-26T14:35:41.186Z,10.10
2022-11-26T14:38:26.865Z,10.10
2022-11-26T14:41:00.480Z,10.20
2022-11-26T14:43:31.655Z,10.20
2022-11-26T14:46:13.125Z,10.10
2022-11-26T14:48:48.447Z,10.10
2022-11-26T14:51:25.132Z,10.10
2022-11-26T14:53:55.087Z,10.10
2022-11-26T14:56:28.419Z,10.00
2022-11-26T14:59:03.084Z,10.00
2022-11-26T15:01:33.811Z,9.90
2022-11-26T15:04:09.337Z,9.90
2022-11-26T15:06:43.449Z,9.90
2022-11-26T15:09:15.923Z,9.80
2022-11-26T15:11:51.710Z,9.80
2022-11-26T15:14:27.441Z,9.70
2022-11-26T15:17:02.458Z,9.70
2022-11-26T15:19:36.497Z,9.70
2022-11-26T15:22:08.568Z,9.60
2022-11-26T15:24:38.170Z,9.60
2022-11-26T15:27:07.053Z,9.50
2022-11-26T15:29:41.828Z,9.40
2022-11-26T15:32:26.443Z,9.40
2022-11-26T15:34:56.561Z,9.30
2022-11-26T15:37:27.409Z,9.30
2022-11-26T15:40:11.368Z,9.30
2022-11-26T15:42:43.414Z,9.20
2022-11-26T15:45:31.279Z,9.20
2022-11-26T15:48:05.696Z,9.20
2022-11-26T15:50:38.556Z,9.10
2022-11-26T15:53:16.767Z,9.10
2022-11-26T15:55:49.025Z,9.00
2022-11-26T15:58:26.298Z,9.00
2022-11-26T16:01:06.304Z,9.00
2022-11-26T16:03:43.715Z,9.00
2022-11-26T16:06:29.762Z,9.00
2022-11-26T16:09:08.678Z,9.00
2022-11-26T16:11:41.304Z,8.90
2022-11-26T16:14:30.791Z,8.90
2022-11-26T16:17:08.102Z,8.90
2022-11-26T16:19:38.831Z,8.90
2022-11-26T16:22:08.536Z,8.80
2022-11-26T16:24:41.067Z,8.80
2022-11-26T16:27:29.897Z,8.80
2022-11-26T16:30:08.805Z,8.80
2022-11-26T16:32:39.216Z,8.80
2022-11-26T16:35:37.570Z,8.80
2022-11-26T16:38:02.077Z,8.70
2022-11-26T16:40:34.835Z,8.70
2022-11-26T16:43:04.271Z,8.70
2022-11-26T16:45:33.762Z,8.70
2022-11-26T16:48:04.606Z,8.70
2022-11-26T16:50:36.731Z,8.60
2022-11-26T16:53:09.026Z,8.60
2022-11-26T16:55:44.367Z,8.60
2022-11-26T16:58:20.945Z,8.50
2022-11-26T17:00:51.459Z,8.50
2022-11-26T17:03:23.934Z,8.50
2022-11-26T17:05:59.870Z,8.50
2022-11-26T17:08:32.897Z,8.40
2022-11-26T17:11:06.889Z,8.40
2022-11-26T17:13:35.970Z,8.40
2022-11-26T17:16:17.471Z,8.40
2022-11-26T17:18:51.274Z,8.40
2022-11-26T17:21:30.480Z,8.30
2022-11-26T17:24:02.701Z,8.30
2022-11-26T17:26:33.210Z,8.20
2022-11-26T17:29:08.614Z,8.20
2022-11-26T17:31:37.692Z,8.20
2022-11-26T17:34:08.255Z,8.10
2022-11-26T17:36:38.658Z,8.10
2022-11-26T17:39:09.113Z,8.10
2022-11-26T17:41:47.643Z,8.00
2022-11-26T17:44:19.609Z,8.00
2022-11-26T17:47:17.735Z,7.90
2022-11-26T17:49:40.958Z,7.90
2022-11-26T17:52:11.403Z,7.90
2022-11-26T17:54:42.600Z,7.80
2022-11-26T17:57:18.226Z,7.80
2022-11-26T17:59:49.913Z,7.80
2022-11-26T18:02:25.112Z,7.70
2022-11-26T18:04:57.696Z,7.70
2022-11-26T18:07:32.865Z,7.60
2022-11-26T18:10:04.102Z,7.60
2022-11-26T18:12:36.294Z,7.50
2022-11-26T18:15:07.991Z,7.50
2022-11-26T18:17:48.423Z,7.50
2022-11-26T18:20:30.426Z,7.40
2022-11-26T18:23:05.616Z,7.30
2022-11-26T18:25:39.534Z,7.30
2022-11-26T18:28:12.156Z,7.30
2022-11-26T18:30:46.320Z,7.30
2022-11-26T18:33:16.323Z,7.20
2022-11-26T18:35:47.765Z,7.20
2022-11-26T18:38:17.111Z,7.20
2022-11-26T18:40:47.116Z,7.20
2022-11-26T18:43:29.824Z,7.10
2022-11-26T18:46:07.342Z,7.10
2022-11-26T18:48:44.179Z,7.00
2022-11-26T18:51:16.523Z,7.00
2022-11-26T18:54:00.122Z,7.00
2022-11-26T18:56:34.451Z,6.90
2022-11-26T18:59:06.208Z,6.90
2022-11-26T19:01:35.984Z,6.90
2022-11-26T19:04:10.138Z,6.90
2022-11-26T19:06:48.774Z,6.80
2022-11-26T19:09:19.418Z,6.80
2022-11-26T19:11:51.150Z,6.80
2022-11-26T19:14:24.401Z,6.80
2022-11-26T19:17:13.609Z,6.70
2022-11-26T19:19:45.966Z,6.70
2022-11-26T19:22:19.505Z,6.70
2022-11-26T19:24:51.400Z,6.60
2022-11-26T19:27:22.805Z,6.60
2022-11-26T19:29:52.221Z,6.60
2022-11-26T19:32:32.438Z,6.50
2022-11-26T19:35:08.055Z,6.50
2022-11-26T19:37:43.028Z,6.50
2022-11-26T19:40:20.376Z,6.40
2022-11-26T19:43:00.072Z,6.40
2022-11-26T19:45:37.676Z,6.40
2022-11-26T19:48:12.162Z,6.30
2022-11-26T19:50:49.156Z,6.30
2022-11-26T19:53:30.088Z,6.20
2022-11-26T19:56:08.560Z,6.20
2022-11-26T19:58:39.162Z,6.20
2022-11-26T20:01:13.601Z,6.10
2022-11-26T20:03:47.398Z,6.10
2022-11-26T20:06:19.089Z,6.10
2022-11-26T20:09:00.720Z,6.10
2022-11-26T20:11:34.760Z,6.10
2022-11-26T20:14:06.229Z,6.10
2022-11-26T20:16:37.079Z,6.10
2022-11-26T20:19:08.620Z,6.10
2022-11-26T20:21:42.820Z,6.10
2022-11-26T20:24:30.395Z,6.10
2022-11-26T20:27:09.308Z,6.00
2022-11-26T20:29:41.146Z,6.00
2022-11-26T20:32:16.407Z,6.00
2022-11-26T20:34:49.258Z,6.00
2022-11-26T20:37:25.728Z,5.90
2022-11-26T20:39:56.123Z,6.00
2022-11-26T20:42:25.254Z,5.90
2022-11-26T20:44:56.338Z,5.90
2022-11-26T20:47:27.968Z,5.90
2022-11-26T20:49:57.522Z,5.90
2022-11-26T20:52:33.864Z,5.90
2022-11-26T20:55:09.563Z,5.90
2022-11-26T20:57:40.230Z,5.90
2022-11-26T21:00:17.236Z,5.90
2022-11-26T21:02:48.738Z,5.90
2022-11-26T21:05:18.552Z,5.90
2022-11-26T21:07:48.507Z,5.90
2022-11-26T21:10:22.989Z,5.90
2022-11-26T21:12:54.164Z,5.90
2022-11-26T21:15:25.801Z,6.00
2022-11-26T21:18:02.883Z,6.00
2022-11-26T21:20:42.136Z,6.00
2022-11-26T21:23:15.753Z,6.10
2022-11-26T21:25:46.432Z,6.10
2022-11-26T21:28:20.789Z,6.10
2022-11-26T21:30:51.118Z,6.10
2022-11-26T21:33:22.164Z,6.10
2022-11-26T21:35:51.542Z,6.10
2022-11-26T21:38:26.668Z,6.10
2022-11-26T21:41:11.677Z,6.10
2022-11-26T21:43:41.104Z,6.10
2022-11-26T21:46:15.210Z,6.10
2022-11-26T21:48:44.570Z,6.10
2022-11-26T21:51:19.171Z,6.10
2022-11-26T21:53:50.045Z,6.10
2022-11-26T21:56:23.148Z,6.20
2022-11-26T21:58:53.125Z,6.20
2022-11-26T22:01:25.333Z,6.20
2022-11-26T22:03:56.928Z,6.20
2022-11-26T22:06:34.904Z,6.20
2022-11-26T22:09:09.065Z,6.10
2022-11-26T22:11:44.218Z,6.10
2022-11-26T22:14:15.439Z,6.10
2022-11-26T22:16:48.692Z,6.10
2022-11-26T22:19:17.884Z,6.10
2022-11-26T22:21:54.645Z,6.00
2022-11-26T22:24:23.958Z,6.00
2022-11-26T22:27:04.097Z,6.00
2022-11-26T22:29:36.075Z,6.00
2022-11-26T22:32:12.883Z,5.90
2022-11-26T22:34:43.088Z,5.90
2022-11-26T22:37:12.328Z,5.80
2022-11-26T22:39:42.154Z,5.80
2022-11-26T22:42:16.146Z,5.80
2022-11-26T22:44:48.793Z,5.70
2022-11-26T22:47:25.011Z,5.70
2022-11-26T22:49:55.298Z,5.70
2022-11-26T22:52:27.911Z,5.60
2022-11-26T22:54:59.484Z,5.60
2022-11-26T22:57:30.009Z,5.60
2022-11-26T23:00:00.373Z,5.60
2022-11-26T23:02:31.801Z,5.60
2022-11-26T23:05:02.200Z,5.50
2022-11-26T23:07:35.215Z,5.60
2022-11-26T23:10:06.249Z,5.50
2022-11-26T23:12:39.543Z,5.50
2022-11-26T23:15:13.237Z,5.50
2022-11-26T23:17:42.837Z,5.50
2022-11-26T23:20:18.456Z,5.50
2022-11-26T23:22:47.756Z,5.50
2022-11-26T23:25:16.747Z,5.50
2022-11-26T23:27:47.117Z,5.50
2022-11-26T23:30:17.345Z,5.50
2022-11-26T23:32:46.120Z,5.60
2022-11-26T23:35:15.860Z,5.60
2022-11-26T23:37:45.316Z,5.60
2022-11-26T23:40:16.024Z,5.60
2022-11-26T23:42:47.819Z,5.70
2022-11-26T23:45:16.819Z,5.70
2022-11-26T23:47:46.174Z,5.60
2022-11-26T23:50:15.318Z,5.60
2022-11-26T23:52:44.666Z,5.60
2022-11-26T23:55:13.301Z,5.60
2022-11-26T23:57:43.059Z,5.60
